Terminal Aerodrome Forecast
Issued by NWS

Home | Current Version | Previous Version | Text Only | Print | Product List | Glossary On
Versions: 1 2 3 4 5 6 7 8 9 10 11 12 13 14 15 16 17 18 19 20 21 22 23 24 25 26 27
000
FTUS45 KPSR 260918 AAH
TAFIWA
TAF AMD
KIWA 260918Z 2609/2706 20010KT P6SM SCT060 SCT080
      TEMPO 2609/2612 BKN050 BKN080
     FM261800 26012G22KT P6SM FEW100
     FM270100 01014G22KT P6SM SCT100
     FM270500 34008KT P6SM SKC
     AMD LTD TO CLD VIS AND WIND TIL 261200=

USA.gov is the U.S. government's official web portal to all federal, state and local government web resources and services.